createdAt,value
2016-12-26T00:00:56.236Z,0
2016-12-26T00:01:55.909Z,0
2016-12-26T00:02:55.890Z,0
2016-12-26T00:03:55.873Z,0
2016-12-26T00:04:56.170Z,0
2016-12-26T00:05:55.835Z,0
2016-12-26T00:06:56.142Z,0
2016-12-26T00:07:55.849Z,0
2016-12-26T00:08:55.789Z,0
2016-12-26T00:09:55.773Z,0
2016-12-26T00:10:55.762Z,0
2016-12-26T00:11:55.779Z,0
2016-12-26T00:12:56.035Z,0
2016-12-26T00:13:56.071Z,0
2016-12-26T00:14:55.700Z,0
2016-12-26T00:15:55.684Z,0
2016-12-26T00:16:55.664Z,0
2016-12-26T00:17:55.646Z,0
2016-12-26T00:18:55.944Z,0
2016-12-26T00:19:55.615Z,0
2016-12-26T00:20:55.597Z,0
2016-12-26T00:21:55.586Z,0
2016-12-26T00:22:55.568Z,0
2016-12-26T00:23:55.865Z,0
2016-12-26T00:24:55.628Z,0
2016-12-26T00:25:55.533Z,0
2016-12-26T00:26:55.819Z,0
2016-12-26T00:27:55.488Z,0
2016-12-26T00:28:55.792Z,0
2016-12-26T00:29:55.464Z,0
2016-12-26T00:30:55.444Z,0
2016-12-26T00:31:55.426Z,0
2016-12-26T00:32:55.441Z,0
2016-12-26T00:33:55.402Z,0
2016-12-26T00:34:55.792Z,0
2016-12-26T00:35:55.363Z,0
2016-12-26T00:36:55.665Z,0
2016-12-26T00:37:55.339Z,0
2016-12-26T00:38:55.324Z,0
2016-12-26T00:39:55.623Z,0
2016-12-26T00:40:55.288Z,0
2016-12-26T00:41:55.279Z,0
2016-12-26T00:42:55.889Z,0
2016-12-26T00:43:55.238Z,0
2016-12-26T00:44:55.232Z,0
2016-12-26T00:45:55.216Z,0
2016-12-26T00:46:55.188Z,0
2016-12-26T00:47:55.182Z,0
2016-12-26T00:48:55.479Z,0
2016-12-26T00:49:55.145Z,0
2016-12-26T00:50:55.131Z,0
2016-12-26T00:51:55.120Z,0
2016-12-26T00:52:55.103Z,0
2016-12-26T00:53:55.080Z,0
2016-12-26T00:54:55.061Z,0
2016-12-26T00:55:55.056Z,0
2016-12-26T00:56:55.037Z,0
2016-12-26T00:57:55.022Z,0
2016-12-26T00:58:55.021Z,0
2016-12-26T00:59:55.307Z,0
2016-12-26T01:00:54.982Z,0
2016-12-26T01:01:54.964Z,0
2016-12-26T01:02:55.604Z,0
2016-12-26T01:03:54.935Z,0
2016-12-26T01:04:54.971Z,0
2016-12-26T01:05:54.900Z,0
2016-12-26T01:06:54.880Z,0
2016-12-26T01:07:55.177Z,0
2016-12-26T01:08:54.849Z,0
2016-12-26T01:09:55.145Z,0
2016-12-26T01:10:54.820Z,0
2016-12-26T01:11:55.115Z,0
2016-12-26T01:12:54.784Z,0
2016-12-26T01:13:54.774Z,0
2016-12-26T01:14:55.386Z,0
2016-12-26T01:15:54.737Z,0
2016-12-26T01:16:54.732Z,0
2016-12-26T01:17:55.035Z,0
2016-12-26T01:18:54.699Z,0
2016-12-26T01:19:54.674Z,0
2016-12-26T01:20:54.659Z,0
2016-12-26T01:21:54.648Z,0
2016-12-26T01:22:54.629Z,0
2016-12-26T01:23:54.610Z,0
2016-12-26T01:24:54.599Z,0
2016-12-26T01:25:54.585Z,0
2016-12-26T01:26:54.878Z,0
2016-12-26T01:27:54.548Z,0
2016-12-26T01:28:54.538Z,0
2016-12-26T01:29:54.526Z,0
2016-12-26T01:30:54.528Z,0
2016-12-26T01:31:54.483Z,0
2016-12-26T01:32:54.784Z,0
2016-12-26T01:33:54.459Z,0
2016-12-26T01:34:54.440Z,0
2016-12-26T01:35:54.425Z,0
2016-12-26T01:36:54.408Z,0
2016-12-26T01:37:54.393Z,0
2016-12-26T01:38:54.724Z,0
2016-12-26T01:39:54.366Z,0
2016-12-26T01:40:54.352Z,0
2016-12-26T01:41:54.639Z,0
2016-12-26T01:42:54.635Z,0
2016-12-26T01:43:54.304Z,0
2016-12-26T01:44:54.595Z,0
2016-12-26T01:45:54.268Z,0
2016-12-26T01:46:54.267Z,0
2016-12-26T01:47:54.243Z,0
2016-12-26T01:48:54.534Z,0
2016-12-26T01:49:54.204Z,0
2016-12-26T01:50:54.497Z,0
2016-12-26T01:51:54.175Z,0
2016-12-26T01:52:54.471Z,0
2016-12-26T01:53:54.453Z,0
2016-12-26T01:54:54.448Z,0
2016-12-26T01:55:54.113Z,0
2016-12-26T01:56:54.101Z,0
2016-12-26T01:57:54.396Z,0
2016-12-26T01:58:54.375Z,0
2016-12-26T01:59:54.058Z,0
2016-12-26T02:00:54.036Z,0
2016-12-26T02:01:54.022Z,0
2016-12-26T02:02:54.003Z,0
2016-12-26T02:03:53.985Z,0
2016-12-26T02:04:54.027Z,0
2016-12-26T02:05:53.953Z,0
2016-12-26T02:06:54.250Z,0
2016-12-26T02:07:53.932Z,0
2016-12-26T02:08:53.912Z,0
2016-12-26T02:09:53.889Z,0
2016-12-26T02:10:53.880Z,0
2016-12-26T02:11:53.856Z,0
2016-12-26T02:12:53.907Z,0
2016-12-26T02:13:53.829Z,0
2016-12-26T02:14:53.811Z,0
2016-12-26T02:15:53.800Z,0
2016-12-26T02:16:53.784Z,0
2016-12-26T02:17:53.763Z,0
2016-12-26T02:18:53.748Z,0
2016-12-26T02:19:53.736Z,0
2016-12-26T02:20:53.718Z,0
2016-12-26T02:21:53.734Z,0
2016-12-26T02:22:53.685Z,0
2016-12-26T02:23:53.986Z,0
2016-12-26T02:24:53.655Z,0
2016-12-26T02:25:53.633Z,0
2016-12-26T02:26:53.628Z,0
2016-12-26T02:27:54.235Z,0
2016-12-26T02:28:53.910Z,0
2016-12-26T02:29:53.580Z,0
2016-12-26T02:30:53.566Z,0
2016-12-26T02:31:53.551Z,0
2016-12-26T02:32:53.855Z,0
2016-12-26T02:33:53.525Z,0
2016-12-26T02:34:53.903Z,0
2016-12-26T02:35:53.495Z,0
2016-12-26T02:36:53.466Z,0
2016-12-26T02:37:53.451Z,0
2016-12-26T02:38:53.433Z,0
2016-12-26T02:39:53.417Z,0
2016-12-26T02:40:53.407Z,0
2016-12-26T02:41:53.704Z,0
2016-12-26T02:42:53.371Z,0
2016-12-26T02:43:53.353Z,0
2016-12-26T02:44:53.344Z,0
2016-12-26T02:45:53.644Z,0
2016-12-26T02:46:53.315Z,0
2016-12-26T02:47:53.292Z,0
2016-12-26T02:48:53.597Z,0
2016-12-26T02:49:53.264Z,0
2016-12-26T02:50:53.256Z,0
2016-12-26T02:51:53.546Z,0
2016-12-26T02:52:53.531Z,0
2016-12-26T02:53:53.204Z,0
2016-12-26T02:54:53.492Z,0
2016-12-26T02:55:53.481Z,0
2016-12-26T02:56:53.155Z,0
2016-12-26T02:57:53.139Z,0
2016-12-26T02:58:53.501Z,0
2016-12-26T02:59:53.105Z,0
2016-12-26T03:00:53.087Z,0
2016-12-26T03:01:53.094Z,0
2016-12-26T03:02:53.051Z,0
2016-12-26T03:03:53.041Z,0
2016-12-26T03:04:53.061Z,0
2016-12-26T03:05:53.324Z,0
2016-12-26T03:06:53.396Z,0
2016-12-26T03:07:53.013Z,0
2016-12-26T03:08:52.965Z,0
2016-12-26T03:09:53.574Z,0
2016-12-26T03:10:52.929Z,0
2016-12-26T03:11:52.922Z,0
2016-12-26T03:12:52.900Z,0
2016-12-26T03:13:53.198Z,0
2016-12-26T03:14:52.874Z,0
2016-12-26T03:15:52.850Z,0
2016-12-26T03:16:52.865Z,0
2016-12-26T03:17:52.822Z,0
2016-12-26T03:18:52.806Z,0
2016-12-26T03:19:52.789Z,0
2016-12-26T03:20:53.086Z,0
2016-12-26T03:21:52.763Z,0
2016-12-26T03:22:52.750Z,0
2016-12-26T03:23:52.731Z,0
2016-12-26T03:24:52.707Z,0
2016-12-26T03:25:52.701Z,0
2016-12-26T03:26:52.991Z,0
2016-12-26T03:27:52.972Z,0
2016-12-26T03:28:52.697Z,0
2016-12-26T03:29:52.982Z,0
2016-12-26T03:30:52.618Z,0
2016-12-26T03:31:52.965Z,0
2016-12-26T03:32:52.584Z,0
2016-12-26T03:33:52.570Z,0
2016-12-26T03:34:52.551Z,0
2016-12-26T03:35:52.588Z,0
2016-12-26T03:36:52.528Z,0
2016-12-26T03:37:52.504Z,0
2016-12-26T03:38:52.804Z,0
2016-12-26T03:39:52.538Z,0
2016-12-26T03:40:52.462Z,0
2016-12-26T03:41:52.752Z,0
2016-12-26T03:42:52.435Z,0
2016-12-26T03:43:52.423Z,0
2016-12-26T03:44:52.392Z,0
2016-12-26T03:45:52.381Z,0
2016-12-26T03:46:52.365Z,0
2016-12-26T03:47:52.344Z,0
2016-12-26T03:48:52.650Z,0
2016-12-26T03:49:52.629Z,0
2016-12-26T03:50:52.616Z,0
2016-12-26T03:51:52.334Z,0
2016-12-26T03:52:52.268Z,0
2016-12-26T03:53:52.258Z,0
2016-12-26T03:54:52.553Z,0
2016-12-26T03:55:52.225Z,0
2016-12-26T03:56:52.518Z,0
2016-12-26T03:57:52.199Z,0
2016-12-26T03:58:52.189Z,0
2016-12-26T03:59:52.163Z,0
2016-12-26T04:00:52.461Z,0
2016-12-26T04:01:52.439Z,0
2016-12-26T04:02:52.106Z,0
2016-12-26T04:03:52.084Z,0
2016-12-26T04:04:52.077Z,0
2016-12-26T04:05:52.374Z,0
2016-12-26T04:06:52.358Z,0
2016-12-26T04:07:52.426Z,0
2016-12-26T04:08:52.019Z,0
2016-12-26T04:09:52.000Z,0
2016-12-26T04:10:51.984Z,0
2016-12-26T04:11:51.976Z,0
2016-12-26T04:12:52.266Z,0
2016-12-26T04:13:51.941Z,0
2016-12-26T04:14:52.236Z,0
2016-12-26T04:15:51.912Z,0
2016-12-26T04:16:51.888Z,0
2016-12-26T04:17:51.891Z,0
2016-12-26T04:18:51.927Z,0
2016-12-26T04:19:52.193Z,0
2016-12-26T04:20:51.826Z,0
2016-12-26T04:21:51.816Z,0
2016-12-26T04:22:51.790Z,0
2016-12-26T04:23:52.086Z,0
2016-12-26T04:24:51.762Z,0
2016-12-26T04:25:51.745Z,0
2016-12-26T04:26:52.051Z,0
2016-12-26T04:27:51.715Z,0
2016-12-26T04:28:51.705Z,0
2016-12-26T04:29:51.741Z,0
2016-12-26T04:30:51.666Z,0
2016-12-26T04:31:51.685Z,0
2016-12-26T04:32:51.964Z,0
2016-12-26T04:33:52.269Z,0
2016-12-26T04:34:51.616Z,0
2016-12-26T04:35:52.414Z,0
2016-12-26T04:36:51.572Z,0
2016-12-26T04:37:51.552Z,0
2016-12-26T04:38:51.538Z,0
2016-12-26T04:39:51.522Z,0
2016-12-26T04:40:51.501Z,0
2016-12-26T04:41:51.802Z,0
2016-12-26T04:42:52.107Z,0
2016-12-26T04:43:51.466Z,0
2016-12-26T04:44:51.758Z,0
2016-12-26T04:45:51.741Z,0
2016-12-26T04:46:51.724Z,0
2016-12-26T04:47:51.394Z,0
2016-12-26T04:48:51.377Z,0
2016-12-26T04:49:51.355Z,0
2016-12-26T04:50:51.658Z,0
2016-12-26T04:51:51.333Z,0
2016-12-26T04:52:51.632Z,0
2016-12-26T04:53:51.923Z,0
2016-12-26T04:54:51.287Z,0
2016-12-26T04:55:51.270Z,0
2016-12-26T04:56:51.247Z,0
2016-12-26T04:57:51.240Z,0
2016-12-26T04:58:51.253Z,0
2016-12-26T04:59:51.300Z,0
2016-12-26T05:00:51.188Z,0
2016-12-26T05:01:51.499Z,0
2016-12-26T05:02:51.167Z,0
2016-12-26T05:03:51.140Z,0
2016-12-26T05:04:51.454Z,0
2016-12-26T05:05:51.419Z,0
2016-12-26T05:06:51.145Z,0
2016-12-26T05:07:51.084Z,0
2016-12-26T05:08:51.382Z,0
2016-12-26T05:09:51.044Z,0
2016-12-26T05:10:51.026Z,0
2016-12-26T05:11:51.016Z,0
2016-12-26T05:12:50.998Z,0
2016-12-26T05:13:50.980Z,0
2016-12-26T05:14:51.287Z,0
2016-12-26T05:15:50.949Z,0
2016-12-26T05:16:50.924Z,0
2016-12-26T05:17:50.919Z,0
2016-12-26T05:18:51.214Z,0
2016-12-26T05:19:51.197Z,0
2016-12-26T05:20:51.200Z,0
2016-12-26T05:21:50.854Z,0
2016-12-26T05:22:51.148Z,0
2016-12-26T05:23:50.848Z,0
2016-12-26T05:24:50.803Z,0
2016-12-26T05:25:51.126Z,0
2016-12-26T05:26:50.769Z,0
2016-12-26T05:27:50.760Z,0
2016-12-26T05:28:50.766Z,0
2016-12-26T05:29:51.359Z,0
2016-12-26T05:30:50.716Z,0
2016-12-26T05:31:51.008Z,0
2016-12-26T05:32:50.679Z,0
2016-12-26T05:33:50.694Z,0
2016-12-26T05:34:51.269Z,0
2016-12-26T05:35:50.641Z,0
2016-12-26T05:36:50.609Z,0
2016-12-26T05:37:50.655Z,0
2016-12-26T05:38:50.575Z,0
2016-12-26T05:39:50.880Z,0
2016-12-26T05:40:50.554Z,0
2016-12-26T05:41:50.555Z,0
2016-12-26T05:42:50.516Z,0
2016-12-26T05:43:50.841Z,0
2016-12-26T05:44:50.482Z,0
2016-12-26T05:45:51.411Z,0
2016-12-26T05:46:50.461Z,0
2016-12-26T05:47:50.451Z,0
2016-12-26T05:48:50.738Z,0
2016-12-26T05:49:50.403Z,0
2016-12-26T05:50:50.389Z,0
2016-12-26T05:51:50.690Z,0
2016-12-26T05:52:50.404Z,0
2016-12-26T05:53:50.340Z,0
2016-12-26T05:54:50.328Z,0
2016-12-26T05:55:50.320Z,0
2016-12-26T05:56:50.291Z,0
2016-12-26T05:57:50.897Z,0
2016-12-26T05:58:50.258Z,0
2016-12-26T05:59:50.292Z,0
2016-12-26T06:00:50.250Z,0
2016-12-26T06:01:50.527Z,0
2016-12-26T06:02:50.245Z,0
2016-12-26T06:03:50.500Z,0
2016-12-26T06:04:50.169Z,0
2016-12-26T06:05:50.143Z,0
2016-12-26T06:06:50.134Z,0
2016-12-26T06:07:50.116Z,0
2016-12-26T06:08:50.101Z,0
2016-12-26T06:09:50.083Z,0
2016-12-26T06:10:50.062Z,0
2016-12-26T06:11:50.365Z,0
2016-12-26T06:12:50.355Z,0
2016-12-26T06:13:50.031Z,0
2016-12-26T06:14:50.009Z,0
2016-12-26T06:15:49.990Z,0
2016-12-26T06:16:49.973Z,0
2016-12-26T06:17:49.950Z,0
2016-12-26T06:18:49.968Z,0
2016-12-26T06:19:49.918Z,0
2016-12-26T06:20:49.909Z,0
2016-12-26T06:21:49.889Z,0
2016-12-26T06:22:50.184Z,0
2016-12-26T06:23:49.858Z,0
2016-12-26T06:24:49.893Z,0
2016-12-26T06:25:49.827Z,0
2016-12-26T06:26:49.833Z,0
2016-12-26T06:27:49.794Z,0
2016-12-26T06:28:50.093Z,0
2016-12-26T06:29:50.076Z,0
2016-12-26T06:30:49.749Z,0
2016-12-26T06:31:49.727Z,0
2016-12-26T06:32:49.717Z,0
2016-12-26T06:33:49.698Z,0
2016-12-26T06:34:49.998Z,0
2016-12-26T06:35:49.864Z,0
2016-12-26T06:36:50.276Z,0
2016-12-26T06:37:49.632Z,0
2016-12-26T06:38:49.615Z,0
2016-12-26T06:39:49.604Z,0
2016-12-26T06:40:49.606Z,0
2016-12-26T06:41:49.891Z,0
2016-12-26T06:42:49.879Z,0
2016-12-26T06:43:49.852Z,0
2016-12-26T06:44:49.528Z,0
2016-12-26T06:45:49.507Z,0
2016-12-26T06:46:49.804Z,0
2016-12-26T06:47:49.788Z,0
2016-12-26T06:48:49.462Z,0
2016-12-26T06:49:49.436Z,0
2016-12-26T06:50:49.440Z,0
2016-12-26T06:51:49.416Z,0
2016-12-26T06:52:49.713Z,0
2016-12-26T06:53:49.378Z,0
2016-12-26T06:54:49.410Z,0
2016-12-26T06:55:49.660Z,0
2016-12-26T06:56:49.640Z,0
2016-12-26T06:57:49.320Z,0
2016-12-26T06:58:49.315Z,0
2016-12-26T06:59:49.601Z,0
2016-12-26T07:00:49.269Z,0
2016-12-26T07:01:49.254Z,0
2016-12-26T07:02:49.550Z,0
2016-12-26T07:03:49.842Z,0
2016-12-26T07:04:49.205Z,0
2016-12-26T07:05:49.190Z,0
2016-12-26T07:06:49.203Z,0
2016-12-26T07:07:49.159Z,0
2016-12-26T07:08:49.137Z,0
2016-12-26T07:09:49.127Z,0
2016-12-26T07:10:49.113Z,0
2016-12-26T07:11:49.406Z,0
2016-12-26T07:12:49.076Z,0
2016-12-26T07:13:49.371Z,0
2016-12-26T07:14:49.050Z,0
2016-12-26T07:15:49.026Z,0
2016-12-26T07:16:49.030Z,0
2016-12-26T07:17:49.017Z,0
2016-12-26T07:18:48.985Z,0
2016-12-26T07:19:48.971Z,0
2016-12-26T07:20:48.957Z,0
2016-12-26T07:21:48.947Z,0
2016-12-26T07:22:48.922Z,0
2016-12-26T07:23:48.910Z,0
2016-12-26T07:24:48.884Z,0
2016-12-26T07:25:48.874Z,0
2016-12-26T07:26:49.167Z,0
2016-12-26T07:27:49.149Z,0
2016-12-26T07:28:48.876Z,0
2016-12-26T07:29:48.876Z,0
2016-12-26T07:30:48.787Z,0
2016-12-26T07:31:48.792Z,0
2016-12-26T07:32:49.069Z,0
2016-12-26T07:33:48.748Z,0
2016-12-26T07:34:48.728Z,0
2016-12-26T07:35:48.704Z,0
2016-12-26T07:36:49.007Z,0
2016-12-26T07:37:48.677Z,0
2016-12-26T07:38:48.980Z,0
2016-12-26T07:39:48.650Z,0
2016-12-26T07:40:48.626Z,0
2016-12-26T07:41:48.611Z,0
2016-12-26T07:42:48.599Z,0
2016-12-26T07:43:49.223Z,5
2016-12-26T07:44:48.565Z,0
2016-12-26T07:45:48.548Z,0
2016-12-26T07:46:48.531Z,0
2016-12-26T07:47:48.513Z,5
2016-12-26T07:48:48.497Z,5
2016-12-26T07:49:48.489Z,0
2016-12-26T07:50:48.499Z,0
2016-12-26T07:51:48.464Z,0
2016-12-26T07:52:48.436Z,0
2016-12-26T07:53:48.422Z,5
2016-12-26T07:54:48.410Z,0
2016-12-26T07:55:48.391Z,5
2016-12-26T07:56:48.383Z,5
2016-12-26T07:57:48.668Z,5
2016-12-26T07:58:48.660Z,5
2016-12-26T07:59:48.324Z,5
2016-12-26T08:00:48.307Z,5
2016-12-26T08:01:48.297Z,5
2016-12-26T08:02:48.585Z,5
2016-12-26T08:03:48.263Z,5
2016-12-26T08:04:48.564Z,5
2016-12-26T08:05:48.261Z,5
2016-12-26T08:06:48.216Z,5
2016-12-26T08:07:48.244Z,5
2016-12-26T08:08:48.808Z,5
2016-12-26T08:09:48.167Z,5
2016-12-26T08:10:48.159Z,5
2016-12-26T08:11:48.135Z,5
2016-12-26T08:12:48.436Z,10
2016-12-26T08:13:48.106Z,15
2016-12-26T08:14:48.088Z,20
2016-12-26T08:15:48.075Z,15
2016-12-26T08:16:48.373Z,15
2016-12-26T08:17:48.360Z,15
2016-12-26T08:18:48.335Z,15
2016-12-26T08:19:48.013Z,20
2016-12-26T08:20:48.033Z,20
2016-12-26T08:21:48.292Z,20
2016-12-26T08:22:49.665Z,20
2016-12-26T08:23:48.592Z,20
2016-12-26T08:24:47.927Z,20
2016-12-26T08:25:48.544Z,15
2016-12-26T08:26:48.209Z,15
2016-12-26T08:27:48.201Z,10
2016-12-26T08:28:48.191Z,15
2016-12-26T08:29:48.491Z,10
2016-12-26T08:30:47.837Z,10
2016-12-26T08:31:47.847Z,10
2016-12-26T08:32:47.801Z,10
2016-12-26T08:33:47.798Z,10
2016-12-26T08:34:47.862Z,10
2016-12-26T08:35:47.961Z,5
2016-12-26T08:36:48.065Z,5
2016-12-26T08:37:47.725Z,5
2016-12-26T08:38:48.020Z,0
2016-12-26T08:39:47.693Z,0
2016-12-26T08:40:47.994Z,0
2016-12-26T08:41:47.664Z,0
2016-12-26T08:42:48.274Z,0
2016-12-26T08:43:47.940Z,5
2016-12-26T08:44:47.929Z,5
2016-12-26T08:45:47.916Z,5
2016-12-26T08:46:47.924Z,5
2016-12-26T08:47:47.943Z,10
2016-12-26T08:48:47.552Z,10
2016-12-26T08:49:47.567Z,10
2016-12-26T08:50:47.516Z,10
2016-12-26T08:51:47.507Z,15
2016-12-26T08:52:47.487Z,15
2016-12-26T08:53:47.514Z,20
2016-12-26T08:54:47.454Z,20
2016-12-26T08:55:47.435Z,20
2016-12-26T08:56:47.416Z,20
2016-12-26T08:57:47.405Z,20
2016-12-26T08:58:47.707Z,25
2016-12-26T08:59:47.375Z,30
2016-12-26T09:00:47.663Z,30
2016-12-26T09:01:47.370Z,30
2016-12-26T09:02:47.325Z,30
2016-12-26T09:03:47.405Z,35
2016-12-26T09:04:47.607Z,35
2016-12-26T09:05:47.270Z,40
2016-12-26T09:06:47.259Z,45
2016-12-26T09:07:47.245Z,45
2016-12-26T09:08:47.224Z,50
2016-12-26T09:09:47.529Z,50
2016-12-26T09:10:47.498Z,50
2016-12-26T09:11:47.489Z,45
2016-12-26T09:12:47.474Z,45
2016-12-26T09:13:47.154Z,45
2016-12-26T09:14:47.147Z,40
2016-12-26T09:15:47.117Z,45
2016-12-26T09:16:47.402Z,45
2016-12-26T09:17:47.124Z,45
2016-12-26T09:18:47.053Z,55
2016-12-26T09:19:47.038Z,55
2016-12-26T09:20:47.328Z,55
2016-12-26T09:21:47.319Z,60
2016-12-26T09:22:46.980Z,75
2016-12-26T09:23:46.970Z,80
2016-12-26T09:24:46.952Z,70
2016-12-26T09:25:46.932Z,65
2016-12-26T09:26:47.230Z,65
2016-12-26T09:27:47.205Z,65
2016-12-26T09:28:46.883Z,65
2016-12-26T09:29:46.868Z,70
2016-12-26T09:30:47.151Z,75
2016-12-26T09:31:46.839Z,65
2016-12-26T09:32:47.132Z,60
2016-12-26T09:33:47.135Z,50
2016-12-26T09:34:47.162Z,50
2016-12-26T09:35:46.762Z,45
2016-12-26T09:36:46.745Z,40
2016-12-26T09:37:46.724Z,35
2016-12-26T09:38:46.711Z,40
2016-12-26T09:39:47.013Z,40
2016-12-26T09:40:46.996Z,50
2016-12-26T09:41:47.003Z,45
2016-12-26T09:42:46.644Z,40
2016-12-26T09:43:46.622Z,35
2016-12-26T09:44:46.603Z,35
2016-12-26T09:45:46.591Z,30
2016-12-26T09:46:46.580Z,35
2016-12-26T09:47:46.550Z,25
2016-12-26T09:48:46.538Z,30
2016-12-26T09:49:46.519Z,30
2016-12-26T09:50:46.499Z,30
2016-12-26T09:51:46.804Z,35
2016-12-26T09:52:46.793Z,35
2016-12-26T09:53:46.452Z,35
2016-12-26T09:54:46.449Z,40
2016-12-26T09:55:46.421Z,35
2016-12-26T09:56:46.407Z,35
2016-12-26T09:57:46.399Z,30
2016-12-26T09:58:46.361Z,30
2016-12-26T09:59:46.650Z,30
2016-12-26T10:00:46.329Z,30
2016-12-26T10:01:47.096Z,30
2016-12-26T10:02:46.607Z,25
2016-12-26T10:03:46.294Z,25
2016-12-26T10:04:46.252Z,30
2016-12-26T10:05:46.544Z,30
2016-12-26T10:06:46.216Z,30
2016-12-26T10:07:46.508Z,25
2016-12-26T10:08:46.173Z,25
2016-12-26T10:09:46.479Z,25
2016-12-26T10:10:47.075Z,25
2016-12-26T10:11:46.126Z,25
2016-12-26T10:12:46.108Z,25
2016-12-26T10:13:46.117Z,20
2016-12-26T10:14:46.068Z,20
2016-12-26T10:15:46.381Z,15
2016-12-26T10:16:46.033Z,15
2016-12-26T10:17:46.022Z,10
2016-12-26T10:18:45.996Z,10
2016-12-26T10:19:45.983Z,10
2016-12-26T10:20:46.269Z,10
2016-12-26T10:21:45.948Z,15
2016-12-26T10:22:45.923Z,20
2016-12-26T10:23:45.912Z,25
2016-12-26T10:24:45.894Z,30
2016-12-26T10:25:45.872Z,35
2016-12-26T10:26:46.176Z,40
2016-12-26T10:27:45.839Z,45
2016-12-26T10:28:45.820Z,50
2016-12-26T10:29:46.421Z,45
2016-12-26T10:30:45.786Z,45
2016-12-26T10:31:46.106Z,40
2016-12-26T10:32:45.739Z,40
2016-12-26T10:33:46.667Z,40
2016-12-26T10:34:45.708Z,40
2016-12-26T10:35:45.890Z,35
2016-12-26T10:36:46.025Z,35
2016-12-26T10:37:45.659Z,30
2016-12-26T10:38:45.636Z,30
2016-12-26T10:39:45.621Z,35
2016-12-26T10:40:45.630Z,40
2016-12-26T10:41:46.208Z,45
2016-12-26T10:42:45.592Z,55
2016-12-26T10:43:45.549Z,60
2016-12-26T10:44:45.840Z,70
2016-12-26T10:45:45.510Z,75
2016-12-26T10:46:45.807Z,80
2016-12-26T10:47:45.784Z,85
2016-12-26T10:48:46.101Z,75
2016-12-26T10:49:45.752Z,65
2016-12-26T10:50:45.468Z,65
2016-12-26T10:51:45.399Z,70
2016-12-26T10:52:45.382Z,80
2016-12-26T10:53:45.374Z,95
2016-12-26T10:54:45.347Z,85
2016-12-26T10:55:45.345Z,70
2016-12-26T10:56:45.621Z,70
2016-12-26T10:57:45.601Z,75
2016-12-26T10:58:45.298Z,80
2016-12-26T10:59:45.272Z,95
2016-12-26T11:00:45.873Z,100
2016-12-26T11:01:45.227Z,105
2016-12-26T11:02:45.824Z,120
2016-12-26T11:03:45.499Z,130
2016-12-26T11:04:45.163Z,140
2016-12-26T11:05:45.151Z,145
2016-12-26T11:06:45.457Z,130
2016-12-26T11:07:45.114Z,120
2016-12-26T11:08:45.404Z,115
2016-12-26T11:09:45.070Z,115
2016-12-26T11:10:45.068Z,110
2016-12-26T11:11:45.042Z,110
2016-12-26T11:12:45.019Z,115
2016-12-26T11:13:45.309Z,110
2016-12-26T11:14:45.323Z,110
2016-12-26T11:15:44.969Z,105
2016-12-26T11:16:44.952Z,125
2016-12-26T11:17:44.960Z,145
2016-12-26T11:18:44.910Z,165
2016-12-26T11:19:44.897Z,180
2016-12-26T11:20:44.886Z,185
2016-12-26T11:21:44.861Z,175
2016-12-26T11:22:44.849Z,165
2016-12-26T11:23:44.841Z,160
2016-12-26T11:24:45.121Z,155
2016-12-26T11:25:45.103Z,145
2016-12-26T11:26:44.781Z,135
2016-12-26T11:27:45.071Z,110
2016-12-26T11:28:44.742Z,100
2016-12-26T11:29:44.720Z,90
2016-12-26T11:30:44.707Z,85
2016-12-26T11:31:45.008Z,75
2016-12-26T11:32:44.991Z,70
2016-12-26T11:33:44.655Z,60
2016-12-26T11:34:44.650Z,55
2016-12-26T11:35:44.628Z,55
2016-12-26T11:36:44.607Z,65
2016-12-26T11:37:44.594Z,80
2016-12-26T11:38:44.573Z,100
2016-12-26T11:39:44.553Z,115
2016-12-26T11:40:44.857Z,125
2016-12-26T11:41:44.830Z,145
2016-12-26T11:42:44.815Z,135
2016-12-26T11:43:44.482Z,130
2016-12-26T11:44:44.467Z,180
2016-12-26T11:45:44.448Z,175
2016-12-26T11:46:44.455Z,175
2016-12-26T11:47:44.423Z,180
2016-12-26T11:48:44.395Z,150
2016-12-26T11:49:44.692Z,150
2016-12-26T11:50:44.364Z,200
2016-12-26T11:51:44.342Z,205
2016-12-26T11:52:44.332Z,195
2016-12-26T11:53:44.323Z,160
2016-12-26T11:54:44.616Z,145
2016-12-26T11:55:44.637Z,140
2016-12-26T11:56:44.262Z,160
2016-12-26T11:57:44.253Z,165
2016-12-26T11:58:44.563Z,140
2016-12-26T11:59:44.231Z,140
2016-12-26T12:00:44.201Z,145
2016-12-26T12:01:44.569Z,145
2016-12-26T12:02:44.184Z,155
2016-12-26T12:03:44.143Z,140
2016-12-26T12:04:44.160Z,155
2016-12-26T12:05:44.117Z,155
2016-12-26T12:06:44.213Z,155
2016-12-26T12:07:44.083Z,135
2016-12-26T12:08:44.389Z,165
2016-12-26T12:09:44.049Z,185
2016-12-26T12:10:44.347Z,210
2016-12-26T12:11:44.009Z,240
2016-12-26T12:12:43.997Z,215
2016-12-26T12:13:43.997Z,195
2016-12-26T12:14:43.967Z,225
2016-12-26T12:15:43.948Z,190
2016-12-26T12:16:44.244Z,220
2016-12-26T12:17:43.932Z,205
2016-12-26T12:18:44.227Z,215
2016-12-26T12:19:43.931Z,270
2016-12-26T12:20:43.866Z,190
2016-12-26T12:21:43.856Z,220
2016-12-26T12:22:43.843Z,210
2016-12-26T12:23:43.826Z,125
2016-12-26T12:24:43.841Z,130
2016-12-26T12:25:44.105Z,140
2016-12-26T12:26:43.783Z,180
2016-12-26T12:27:43.769Z,125
2016-12-26T12:28:43.754Z,110
2016-12-26T12:29:43.738Z,130
2016-12-26T12:30:43.727Z,160
2016-12-26T12:31:43.704Z,185
2016-12-26T12:32:44.212Z,190
2016-12-26T12:33:44.345Z,170
2016-12-26T12:34:43.674Z,160
2016-12-26T12:35:44.056Z,140
2016-12-26T12:36:43.639Z,145
2016-12-26T12:38:43.916Z,195
2016-12-26T12:39:44.207Z,150
2016-12-26T12:40:43.572Z,100
2016-12-26T12:41:43.561Z,100
2016-12-26T12:42:43.896Z,95
2016-12-26T12:43:43.523Z,160
2016-12-26T12:44:43.835Z,80
2016-12-26T12:45:43.506Z,75
2016-12-26T12:46:43.485Z,110
2016-12-26T12:47:43.461Z,115
2016-12-26T12:48:43.471Z,105
2016-12-26T12:49:43.457Z,135
2016-12-26T12:50:43.421Z,125
2016-12-26T12:51:43.412Z,90
2016-12-26T12:52:43.431Z,95
2016-12-26T12:53:43.368Z,115
2016-12-26T12:54:43.354Z,140
2016-12-26T12:55:43.657Z,190
2016-12-26T12:56:43.648Z,205
2016-12-26T12:57:43.302Z,230
2016-12-26T12:58:43.288Z,225
2016-12-26T12:59:43.275Z,165
2016-12-26T13:00:43.262Z,110
2016-12-26T13:01:43.248Z,110
2016-12-26T13:02:43.589Z,100
2016-12-26T13:03:43.294Z,80
2016-12-26T13:04:43.834Z,85
2016-12-26T13:05:43.193Z,80
2016-12-26T13:06:43.536Z,70
2016-12-26T13:07:43.466Z,70
2016-12-26T13:08:43.146Z,65
2016-12-26T13:09:43.448Z,55
2016-12-26T13:10:43.416Z,55
2016-12-26T13:11:43.088Z,50
2016-12-26T13:12:43.072Z,50
2016-12-26T13:13:43.067Z,60
2016-12-26T13:14:43.033Z,65
2016-12-26T13:15:43.343Z,65
2016-12-26T13:16:43.668Z,65
2016-12-26T13:17:42.988Z,65
2016-12-26T13:18:42.974Z,60
2016-12-26T13:19:43.266Z,55
2016-12-26T13:20:42.950Z,60
2016-12-26T13:21:42.920Z,60
2016-12-26T13:22:42.908Z,65
2016-12-26T13:23:42.940Z,60
2016-12-26T13:24:42.876Z,60
2016-12-26T13:25:42.863Z,105
2016-12-26T13:26:43.158Z,185
2016-12-26T13:27:43.154Z,65
2016-12-26T13:28:43.117Z,65
2016-12-26T13:29:42.783Z,85
2016-12-26T13:30:42.765Z,110
2016-12-26T13:31:42.756Z,100
2016-12-26T13:32:43.391Z,95
2016-12-26T13:33:43.200Z,75
2016-12-26T13:34:42.707Z,70
2016-12-26T13:35:42.690Z,70
2016-12-26T13:36:43.264Z,75
2016-12-26T13:37:43.014Z,90
2016-12-26T13:38:42.633Z,120
2016-12-26T13:39:43.608Z,130
2016-12-26T13:40:42.954Z,120
2016-12-26T13:41:42.900Z,205
2016-12-26T13:42:42.570Z,105
2016-12-26T13:43:42.869Z,150
2016-12-26T13:44:42.850Z,240
2016-12-26T13:45:43.163Z,125
2016-12-26T13:46:42.831Z,250
2016-12-26T13:47:42.804Z,225
2016-12-26T13:48:42.480Z,120
2016-12-26T13:49:42.464Z,180
2016-12-26T13:50:42.452Z,155
2016-12-26T13:51:42.775Z,130
2016-12-26T13:52:42.409Z,120
2016-12-26T13:53:43.580Z,125
2016-12-26T13:54:42.382Z,100
2016-12-26T13:55:42.694Z,105
2016-12-26T13:56:42.355Z,100
2016-12-26T13:57:42.389Z,90
2016-12-26T13:58:42.980Z,90
2016-12-26T13:59:42.304Z,75
2016-12-26T14:00:42.923Z,75
2016-12-26T14:01:42.330Z,75
2016-12-26T14:02:42.268Z,75
2016-12-26T14:03:42.248Z,70
2016-12-26T14:04:42.554Z,70
2016-12-26T14:05:42.864Z,65
2016-12-26T14:06:42.207Z,60
2016-12-26T14:07:42.497Z,55
2016-12-26T14:08:42.234Z,60
2016-12-26T14:09:42.514Z,55
2016-12-26T14:10:42.446Z,55
2016-12-26T14:11:42.438Z,55
2016-12-26T14:12:42.115Z,55
2016-12-26T14:13:42.105Z,50
2016-12-26T14:14:42.392Z,55
2016-12-26T14:15:42.055Z,55
2016-12-26T14:16:42.048Z,55
2016-12-26T14:17:42.019Z,55
2016-12-26T14:18:42.002Z,50
2016-12-26T14:19:41.987Z,50
2016-12-26T14:20:42.298Z,55
2016-12-26T14:21:41.964Z,50
2016-12-26T14:22:41.942Z,50
2016-12-26T14:23:41.929Z,50
2016-12-26T14:24:42.045Z,50
2016-12-26T14:25:41.886Z,50
2016-12-26T14:26:41.872Z,45
2016-12-26T14:27:41.869Z,45
2016-12-26T14:28:42.212Z,40
2016-12-26T14:29:41.828Z,40